Time;durP1;ratioP1;P1;durP2;ratioP2;P2;SDS_P1;SDS_P2;PMS_P1;PMS_P2;Temp;Humidity;BMP_temperature;BMP_pressure;BME280_temperature;BME280_humidity;BME280_pressure;Samples;Min_cycle;Max_cycle;Signal;HPM_P1;HPM_P2
2023/04/28 00:01:18;;;;;;;1999.90;999.90;;;9.80;99.90;;;;;;5073989;28;20033;-74
2023/04/28 00:03:43;;;;;;;1999.90;999.90;;;9.80;99.90;;;;;;5074090;28;20040;-73
2023/04/28 00:06:10;;;;;;;1999.90;999.90;;;9.80;99.90;;;;;;5055556;28;20406;-73
2023/04/28 00:08:35;;;;;;;1999.90;999.90;;;9.90;99.90;;;;;;5073994;28;20032;-73
2023/04/28 00:11:01;;;;;;;1999.90;999.90;;;9.90;99.90;;;;;;5056004;28;20382;-73
2023/04/28 00:13:26;;;;;;;1999.90;999.90;;;10.00;99.90;;;;;;5074115;28;20044;-73
2023/04/28 00:15:53;;;;;;;1999.90;999.90;;;10.00;99.90;;;;;;5072892;28;20048;-74
2023/04/28 00:18:20;;;;;;;1999.90;999.90;;;10.00;99.90;;;;;;5055942;28;20037;-73
2023/04/28 00:20:46;;;;;;;1999.90;999.90;;;10.00;99.90;;;;;;5055519;28;20037;-73
2023/04/28 00:23:12;;;;;;;1999.90;999.90;;;10.00;99.90;;;;;;5073965;28;20401;-73
2023/04/28 00:25:37;;;;;;;1999.90;999.90;;;10.00;99.90;;;;;;5074557;28;20051;-73
2023/04/28 00:28:03;;;;;;;1999.90;999.90;;;10.00;99.90;;;;;;5059185;28;20024;-73
2023/04/28 00:30:29;;;;;;;1999.90;999.90;;;10.00;99.90;;;;;;5076996;28;20478;-73
2023/04/28 00:32:55;;;;;;;1999.90;999.90;;;10.00;99.90;;;;;;5059202;28;20056;-73
2023/04/28 00:35:20;;;;;;;1999.90;999.90;;;10.00;99.90;;;;;;5076636;28;20032;-73
2023/04/28 00:37:46;;;;;;;1999.90;999.90;;;10.00;99.90;;;;;;5058413;28;20055;-73
2023/04/28 00:40:12;;;;;;;1999.90;999.90;;;10.10;99.90;;;;;;5077194;28;20060;-73
2023/04/28 00:42:37;;;;;;;1999.90;999.90;;;10.10;99.90;;;;;;5077187;28;20514;-73
2023/04/28 00:45:06;;;;;;;1999.90;999.90;;;10.10;99.90;;;;;;5058363;28;20124;-73
2023/04/28 00:47:36;;;;;;;1999.90;999.90;;;10.10;99.90;;;;;;5076785;28;20477;-74
2023/04/28 00:50:04;;;;;;;1999.90;999.90;;;10.10;99.90;;;;;;5076520;28;20033;-73
2023/04/28 00:52:30;;;;;;;1999.90;999.90;;;10.10;99.90;;;;;;5076563;28;20029;-73
2023/04/28 00:54:56;;;;;;;1999.90;999.90;;;10.10;99.90;;;;;;5076503;28;20064;-73
2023/04/28 00:57:22;;;;;;;1999.90;999.90;;;10.10;99.90;;;;;;5076693;28;20036;-73
2023/04/28 00:59:48;;;;;;;1999.90;999.90;;;10.10;99.90;;;;;;5076297;28;20037;-73
2023/04/28 01:02:16;;;;;;;1999.90;999.90;;;10.10;99.90;;;;;;5076999;28;20060;-73
2023/04/28 01:04:44;;;;;;;1999.90;999.90;;;10.00;99.90;;;;;;5057721;28;20535;-73
2023/04/28 01:07:09;;;;;;;1999.90;999.90;;;9.90;99.90;;;;;;5076486;28;20029;-73
2023/04/28 01:09:35;;;;;;;1999.90;999.90;;;9.80;99.90;;;;;;5076261;28;20491;-73
2023/04/28 01:12:00;;;;;;;1999.90;999.90;;;9.60;99.90;;;;;;5076704;28;20033;-72
2023/04/28 01:14:26;;;;;;;1999.90;999.90;;;9.50;99.90;;;;;;5057897;28;20041;-72
2023/04/28 01:16:52;;;;;;;1999.90;999.90;;;9.50;99.90;;;;;;5075841;28;20036;-72
2023/04/28 01:19:21;;;;;;;1999.90;999.90;;;9.40;99.90;;;;;;5076316;28;20040;-72
2023/04/28 01:21:50;;;;;;;1999.90;999.90;;;9.30;99.90;;;;;;5076352;28;20502;-72
2023/04/28 01:24:16;;;;;;;1999.90;999.90;;;9.20;99.90;;;;;;5075739;28;20041;-72
2023/04/28 01:26:42;;;;;;;1999.90;999.90;;;9.20;99.90;;;;;;5076000;28;20856;-72
2023/04/28 01:29:08;;;;;;;1999.90;999.90;;;9.20;99.90;;;;;;5076120;28;20045;-72
2023/04/28 01:31:33;;;;;;;1999.90;999.90;;;9.20;99.90;;;;;;5076483;28;20033;-72
2023/04/28 01:33:59;;;;;;;1999.90;999.90;;;9.20;99.90;;;;;;5075892;28;20041;-72
2023/04/28 01:36:26;;;;;;;1999.90;999.90;;;9.20;99.90;;;;;;5075390;28;20036;-72
2023/04/28 01:38:51;;;;;;;1999.90;999.90;;;9.20;99.90;;;;;;5076102;28;20034;-72
2023/04/28 01:41:17;;;;;;;1999.90;999.90;;;9.10;99.90;;;;;;5076238;28;20033;-72
2023/04/28 01:43:42;;;;;;;1999.90;999.90;;;9.10;99.90;;;;;;5057479;28;20087;-72
2023/04/28 01:46:11;;;;;;;1999.90;999.90;;;9.10;99.90;;;;;;5075569;28;20041;-72
2023/04/28 01:48:37;;;;;;;1999.90;999.90;;;9.10;99.90;;;;;;5075208;28;20068;-72
2023/04/28 01:51:02;;;;;;;1999.90;999.90;;;9.10;99.90;;;;;;5057520;28;20132;-72
2023/04/28 01:53:28;;;;;;;1999.90;999.90;;;9.10;99.90;;;;;;5075981;28;20029;-72
2023/04/28 01:55:54;;;;;;;1999.90;999.90;;;9.00;99.90;;;;;;5075480;28;20483;-72
2023/04/28 01:58:19;;;;;;;1999.90;999.90;;;9.00;99.90;;;;;;5075728;28;20486;-72
2023/04/28 02:00:46;;;;;;;1999.90;999.90;;;9.10;99.90;;;;;;5075941;28;20536;-72
2023/04/28 02:03:12;;;;;;;1999.90;999.90;;;9.10;99.90;;;;;;5075869;28;20494;-72
2023/04/28 02:05:37;;;;;;;1999.90;999.90;;;9.10;99.90;;;;;;5075310;28;20041;-72
2023/04/28 02:08:03;;;;;;;1999.90;999.90;;;9.10;99.90;;;;;;5057600;28;20394;-72
2023/04/28 02:10:28;;;;;;;1999.90;999.90;;;9.10;99.90;;;;;;5075855;28;20033;-72
2023/04/28 02:12:54;;;;;;;1999.90;999.90;;;9.10;99.90;;;;;;5075162;28;20398;-72
2023/04/28 02:15:20;;;;;;;1999.90;999.90;;;9.10;99.90;;;;;;5074944;28;20029;-72
2023/04/28 02:17:46;;;;;;;1999.90;999.90;;;9.10;99.90;;;;;;5075385;28;20144;-72
2023/04/28 02:20:13;;;;;;;1999.90;999.90;;;9.10;99.90;;;;;;5075639;28;20041;-72
2023/04/28 02:22:38;;;;;;;1999.90;999.90;;;9.20;99.90;;;;;;5075248;28;20513;-72
2023/04/28 02:25:04;;;;;;;1999.90;999.90;;;9.20;99.90;;;;;;5075120;28;20052;-72
2023/04/28 02:27:30;;;;;;;1999.90;999.90;;;9.20;99.90;;;;;;5075346;28;20589;-72
2023/04/28 02:29:56;;;;;;;1999.90;999.90;;;9.30;99.90;;;;;;5075240;28;20068;-72
2023/04/28 02:32:21;;;;;;;1999.90;999.90;;;9.30;99.90;;;;;;5075175;28;20498;-72
2023/04/28 02:34:52;;;;;;;1999.90;999.90;;;9.30;99.90;;;;;;5056815;28;20041;-72
2023/04/28 02:37:18;;;;;;;1999.90;999.90;;;9.30;99.90;;;;;;5057336;28;20045;-72
2023/04/28 02:39:46;;;;;;;1999.90;999.90;;;9.30;99.90;;;;;;5075345;28;20045;-72
2023/04/28 02:42:12;;;;;;;1999.90;999.90;;;9.40;99.90;;;;;;5074807;28;20033;-72
2023/04/28 02:44:37;;;;;;;1999.90;999.90;;;9.30;99.90;;;;;;5056395;28;20518;-72
2023/04/28 02:47:03;;;;;;;1999.90;999.90;;;9.40;99.90;;;;;;5075308;28;20025;-72
2023/04/28 02:49:28;;;;;;;1999.90;999.90;;;9.40;99.90;;;;;;5074240;28;20494;-72
2023/04/28 02:51:54;;;;;;;1999.90;999.90;;;9.40;99.90;;;;;;5075078;28;20104;-72
2023/04/28 02:54:26;;;;;;;1999.90;999.90;;;9.40;99.90;;;;;;5074679;28;20032;-72
2023/04/28 02:56:53;;;;;;;1999.90;999.90;;;9.40;99.90;;;;;;5074709;28;20025;-72
2023/04/28 02:59:19;;;;;;;1999.90;999.90;;;9.40;99.90;;;;;;5056706;28;20071;-72
2023/04/28 03:01:44;;;;;;;1999.90;999.90;;;9.40;99.90;;;;;;5056724;28;20029;-72
2023/04/28 03:04:10;;;;;;;1999.90;999.90;;;9.40;99.90;;;;;;5074729;28;20043;-72
2023/04/28 03:06:35;;;;;;;1999.90;999.90;;;9.40;99.90;;;;;;5074324;28;20025;-72
2023/04/28 03:09:01;;;;;;;1999.90;999.90;;;9.40;99.90;;;;;;5056780;28;20076;-72
2023/04/28 03:11:26;;;;;;;1999.90;999.90;;;9.40;99.90;;;;;;5056226;28;20040;-72
2023/04/28 03:13:52;;;;;;;1999.90;999.90;;;9.40;99.90;;;;;;5074248;28;20037;-72
2023/04/28 03:16:17;;;;;;;1999.90;999.90;;;9.40;99.90;;;;;;5074025;28;20041;-72
2023/04/28 03:18:43;;;;;;;1999.90;999.90;;;9.40;99.90;;;;;;5074859;28;20127;-72
2023/04/28 03:21:08;;;;;;;1999.90;999.90;;;9.40;99.90;;;;;;5075324;28;20494;-72
2023/04/28 03:23:34;;;;;;;1999.90;999.90;;;9.40;99.90;;;;;;5075540;28;20032;-72
2023/04/28 03:26:00;;;;;;;1999.90;999.90;;;9.50;99.90;;;;;;5074226;28;20403;-72
2023/04/28 03:28:25;;;;;;;1999.90;999.90;;;9.40;99.90;;;;;;5056432;28;20087;-72
2023/04/28 03:30:51;;;;;;;1999.90;999.90;;;9.50;99.90;;;;;;5074470;28;20120;-72
2023/04/28 03:33:16;;;;;;;1999.90;999.90;;;9.50;99.90;;;;;;5074503;28;20029;-72
2023/04/28 03:35:42;;;;;;;1999.90;999.90;;;9.50;99.90;;;;;;5073989;28;20040;-72
2023/04/28 03:38:07;;;;;;;1999.90;999.90;;;9.50;99.90;;;;;;5074572;28;20040;-72
2023/04/28 03:40:33;;;;;;;1999.90;999.90;;;9.40;99.90;;;;;;5074596;28;20044;-72
2023/04/28 03:42:58;;;;;;;1999.90;999.90;;;9.50;99.90;;;;;;5056057;28;20036;-72
2023/04/28 03:45:24;;;;;;;1999.90;999.90;;;9.40;99.90;;;;;;5055666;28;20037;-73
2023/04/28 03:47:50;;;;;;;1999.90;999.90;;;9.40;99.90;;;;;;5074276;28;20430;-72
2023/04/28 03:50:15;;;;;;;1999.90;999.90;;;9.40;99.90;;;;;;5074317;28;20033;-72
2023/04/28 03:52:41;;;;;;;1999.90;999.90;;;9.50;99.90;;;;;;5074372;28;20060;-73
2023/04/28 03:55:07;;;;;;;1999.90;999.90;;;9.50;99.90;;;;;;5055476;28;20542;-72
2023/04/28 03:57:32;;;;;;;1999.90;999.90;;;9.50;99.90;;;;;;5073869;28;20037;-72
2023/04/28 03:59:58;;;;;;;1999.90;999.90;;;9.50;99.90;;;;;;5057604;28;20036;-73
2023/04/28 04:02:23;;;;;;;1999.90;999.90;;;9.50;99.90;;;;;;5077813;28;20041;-74
2023/04/28 04:04:49;;;;;;;1999.90;999.90;;;9.50;99.90;;;;;;5059264;28;20437;-72
2023/04/28 04:07:14;;;;;;;1999.90;999.90;;;9.50;99.90;;;;;;5077604;28;20033;-73
2023/04/28 04:09:42;;;;;;;1999.90;999.90;;;9.50;99.90;;;;;;5077678;28;20479;-74
2023/04/28 04:12:08;;;;;;;1999.90;999.90;;;9.60;99.90;;;;;;5077581;28;20033;-72
2023/04/28 04:14:33;;;;;;;1999.90;999.90;;;9.60;99.90;;;;;;5076948;28;20383;-72
2023/04/28 04:16:59;;;;;;;1999.90;999.90;;;9.60;99.90;;;;;;5108521;22;20055;-70
2023/04/28 04:19:25;;;;;;;1999.90;999.90;;;9.60;99.90;;;;;;5118084;28;20094;-70
2023/04/28 04:21:51;;;;;;;1999.90;999.90;;;9.60;99.90;;;;;;5118175;28;20111;-71
2023/04/28 04:24:17;;;;;;;1999.90;999.90;;;9.70;99.90;;;;;;5117468;28;20050;-70
2023/04/28 04:26:42;;;;;;;1999.90;999.90;;;9.70;99.90;;;;;;5117652;28;20032;-70
2023/04/28 04:29:08;;;;;;;1999.90;999.90;;;9.70;99.90;;;;;;5118048;28;20064;-71
2023/04/28 04:31:33;;;;;;;1999.90;999.90;;;9.70;99.90;;;;;;5099410;28;20029;-71
2023/04/28 04:33:59;;;;;;;1999.90;999.90;;;9.80;99.90;;;;;;5099051;28;20076;-71
2023/04/28 04:36:25;;;;;;;1999.90;999.90;;;9.80;99.90;;;;;;5099233;28;20028;-71
2023/04/28 04:38:50;;;;;;;1999.90;999.90;;;9.80;99.90;;;;;;5117732;28;20110;-71
2023/04/28 04:41:19;;;;;;;1999.90;999.90;;;9.90;99.90;;;;;;5117642;28;20036;-71
2023/04/28 04:43:45;;;;;;;1999.90;999.90;;;9.90;99.90;;;;;;5117280;28;20032;-71
2023/04/28 04:46:10;;;;;;;1999.90;999.90;;;9.90;99.90;;;;;;5117336;28;20481;-71
2023/04/28 04:48:36;;;;;;;1999.90;999.90;;;9.90;99.90;;;;;;5117499;28;20032;-71
2023/04/28 04:51:01;;;;;;;1999.90;999.90;;;10.00;99.90;;;;;;5117701;28;20036;-71
2023/04/28 04:53:27;;;;;;;1999.90;999.90;;;10.00;99.90;;;;;;5117375;28;20028;-71
2023/04/28 04:55:52;;;;;;;1999.90;999.90;;;10.00;99.90;;;;;;5117066;28;20063;-71
2023/04/28 04:58:18;;;;;;;1999.90;999.90;;;10.00;99.90;;;;;;5117702;28;20060;-71
2023/04/28 05:00:44;;;;;;;1999.90;999.90;;;10.00;99.90;;;;;;5098829;28;20119;-71
2023/04/28 05:03:10;;;;;;;1999.90;999.90;;;10.00;99.90;;;;;;5117214;28;20044;-71
2023/04/28 05:05:36;;;;;;;1999.90;999.90;;;10.00;99.90;;;;;;5116905;28;20032;-71
2023/04/28 05:08:02;;;;;;;1999.90;999.90;;;10.00;99.90;;;;;;5116933;28;20040;-71
2023/04/28 05:10:28;;;;;;;1999.90;999.90;;;10.00;99.90;;;;;;5098315;28;20904;-71
2023/04/28 05:12:53;;;;;;;1999.90;999.90;;;10.10;99.90;;;;;;5116699;28;20028;-71
2023/04/28 05:15:19;;;;;;;1999.90;999.90;;;10.10;99.90;;;;;;5116945;28;20058;-71
2023/04/28 05:17:45;;;;;;;1999.90;999.90;;;10.10;99.90;;;;;;5116892;28;20036;-71
2023/04/28 05:20:10;;;;;;;1999.90;999.90;;;10.20;99.90;;;;;;5117001;28;20035;-71
2023/04/28 05:22:36;;;;;;;1999.90;999.90;;;10.20;99.90;;;;;;5116917;28;20469;-71
2023/04/28 05:25:01;;;;;;;1999.90;999.90;;;10.20;99.90;;;;;;5116447;28;20044;-71
2023/04/28 05:27:27;;;;;;;1999.90;999.90;;;10.30;99.90;;;;;;5098265;28;20063;-71
2023/04/28 05:29:52;;;;;;;1999.90;999.90;;;10.30;99.90;;;;;;5117273;28;20043;-71
2023/04/28 05:32:18;;;;;;;1999.90;999.90;;;10.40;99.90;;;;;;5116685;28;20035;-71
2023/04/28 05:34:43;;;;;;;1999.90;999.90;;;10.40;99.90;;;;;;5116575;28;20080;-71
2023/04/28 05:37:09;;;;;;;1999.90;999.90;;;10.50;99.90;;;;;;5097883;28;20478;-71
2023/04/28 05:39:35;;;;;;;1999.90;999.90;;;10.50;99.90;;;;;;5116666;28;20401;-72
2023/04/28 05:42:00;;;;;;;1999.90;999.90;;;10.50;99.90;;;;;;5116963;28;20064;-71
2023/04/28 05:44:26;;;;;;;1999.90;999.90;;;10.50;99.90;;;;;;5116250;28;20913;-72
2023/04/28 05:46:51;;;;;;;1999.90;999.90;;;10.60;99.90;;;;;;5098216;28;20028;-76
2023/04/28 05:49:17;;;;;;;1999.90;999.90;;;10.50;99.90;;;;;;5098661;28;20031;-75
2023/04/28 05:51:43;;;;;;;1999.90;999.90;;;10.60;99.90;;;;;;5117208;28;20106;-77
2023/04/28 05:54:09;;;;;;;1999.90;999.90;;;10.60;99.90;;;;;;5116441;28;20497;-76
2023/04/28 05:56:34;;;;;;;1999.90;999.90;;;10.70;99.90;;;;;;5116539;28;20031;-76
2023/04/28 05:59:03;;;;;;;1999.90;999.90;;;10.70;99.90;;;;;;5116908;28;20117;-74
2023/04/28 06:01:32;;;;;;;1999.90;999.90;;;10.70;99.90;;;;;;5116548;28;20386;-74
2023/04/28 06:03:57;;;;;;;1999.90;999.90;;;10.70;99.90;;;;;;5097645;28;20099;-74
2023/04/28 06:06:24;;;;;;;1999.90;999.90;;;10.70;99.90;;;;;;5097444;28;20129;-74
2023/04/28 06:08:50;;;;;;;1999.90;999.90;;;10.70;99.90;;;;;;5116561;28;20497;-75
2023/04/28 06:11:18;;;;;;;1999.90;999.90;;;10.60;99.90;;;;;;5116466;28;20038;-74
2023/04/28 06:13:43;;;;;;;1999.90;999.90;;;10.60;99.90;;;;;;5116091;28;20468;-74
2023/04/28 06:16:09;;;;;;;1999.90;999.90;;;10.60;99.90;;;;;;5097345;28;20036;-73
2023/04/28 06:18:34;;;;;;;1999.90;999.90;;;10.70;99.90;;;;;;5116359;28;20031;-73
2023/04/28 06:21:00;;;;;;;1999.90;999.90;;;10.70;99.90;;;;;;5116247;28;20381;-73
2023/04/28 06:23:26;;;;;;;1999.90;999.90;;;10.70;99.90;;;;;;5114902;27;20039;-74
2023/04/28 06:25:51;;;;;;;1999.90;999.90;;;10.70;99.90;;;;;;5115609;28;20471;-74
2023/04/28 06:28:17;;;;;;;1999.90;999.90;;;10.70;99.90;;;;;;5115823;28;20090;-74
2023/04/28 06:30:43;;;;;;;1999.90;999.90;;;10.70;99.90;;;;;;5115765;28;20028;-74
2023/04/28 06:33:08;;;;;;;1999.90;999.90;;;10.80;99.90;;;;;;5116244;28;20552;-74
2023/04/28 06:35:35;;;;;;;1999.90;999.90;;;10.80;99.90;;;;;;5115898;28;20043;-74
2023/04/28 06:38:02;;;;;;;1999.90;999.90;;;10.80;99.90;;;;;;5115630;28;20366;-74
2023/04/28 06:40:28;;;;;;;1999.90;999.90;;;10.70;99.90;;;;;;5116042;28;20093;-74
2023/04/28 06:42:53;;;;;;;1999.90;999.90;;;10.70;99.90;;;;;;5116016;28;20082;-74
2023/04/28 06:45:19;;;;;;;1999.90;999.90;;;10.80;99.90;;;;;;5115664;28;20048;-74
2023/04/28 06:47:45;;;;;;;1999.90;999.90;;;10.80;99.90;;;;;;5115584;28;20032;-74
2023/04/28 06:50:10;;;;;;;1999.90;999.90;;;10.80;99.90;;;;;;5097683;28;20481;-74
2023/04/28 06:52:37;;;;;;;1999.90;999.90;;;10.90;99.90;;;;;;5115793;28;20028;-74
2023/04/28 06:55:05;;;;;;;1999.90;999.90;;;10.90;99.90;;;;;;5115332;28;20059;-74
2023/04/28 06:57:30;;;;;;;1999.90;999.90;;;11.00;99.90;;;;;;5115616;28;20159;-74
2023/04/28 06:59:56;;;;;;;1999.90;999.90;;;11.00;99.90;;;;;;5115632;28;20529;-74
2023/04/28 07:02:21;;;;;;;1999.90;999.90;;;10.90;99.90;;;;;;5115707;28;20032;-74
2023/04/28 07:04:48;;;;;;;1999.90;999.90;;;10.90;99.90;;;;;;5115203;28;20028;-74
2023/04/28 07:07:13;;;;;;;1999.90;999.90;;;10.90;99.90;;;;;;5115031;28;20024;-74
2023/04/28 07:09:39;;;;;;;1999.90;999.90;;;11.00;99.90;;;;;;5115536;28;20401;-74
2023/04/28 07:12:05;;;;;;;1999.90;999.90;;;11.00;99.90;;;;;;5115313;28;20039;-74
2023/04/28 07:14:30;;;;;;;1999.90;999.90;;;11.00;99.90;;;;;;5115167;28;20790;-74
2023/04/28 07:16:56;;;;;;;1999.90;999.90;;;11.00;99.90;;;;;;5115111;28;20032;-74
2023/04/28 07:19:21;;;;;;;1999.90;999.90;;;11.20;99.90;;;;;;5114796;28;20050;-74
2023/04/28 07:21:47;;;;;;;1999.90;999.90;;;11.20;99.90;;;;;;5115211;28;20067;-74
2023/04/28 07:24:12;;;;;;;1999.90;999.90;;;11.10;99.90;;;;;;5114776;28;20093;-74
2023/04/28 07:26:38;;;;;;;1999.90;999.90;;;11.00;99.90;;;;;;5115071;28;20065;-74
2023/04/28 07:29:03;;;;;;;1999.90;999.90;;;11.10;99.90;;;;;;5115403;28;20533;-74
2023/04/28 07:31:29;;;;;;;1999.90;999.90;;;11.10;99.90;;;;;;5115051;28;20036;-74
2023/04/28 07:33:55;;;;;;;1999.90;999.90;;;11.10;99.90;;;;;;5113802;28;20039;-74
2023/04/28 07:36:21;;;;;;;1999.90;999.90;;;11.20;99.90;;;;;;5114806;28;20036;-74
2023/04/28 07:38:47;;;;;;;1999.90;999.90;;;11.20;99.90;;;;;;5115224;28;20036;-74
2023/04/28 07:41:12;;;;;;;1999.90;999.90;;;11.20;99.90;;;;;;5116987;28;20043;-74
2023/04/28 07:43:39;;;;;;;1999.90;999.90;;;11.20;99.90;;;;;;5116438;28;20037;-74
2023/04/28 07:46:06;;;;;;;1999.90;999.90;;;11.30;99.90;;;;;;5095792;28;20044;-74
2023/04/28 07:48:31;;;;;;;1999.90;999.90;;;11.30;99.90;;;;;;5114767;28;20032;-74
2023/04/28 07:50:57;;;;;;;1999.90;999.90;;;11.30;99.90;;;;;;5114978;28;20489;-74
2023/04/28 07:53:22;;;;;;;1999.90;999.90;;;11.30;99.90;;;;;;5114996;28;20442;-74
2023/04/28 07:55:48;;;;;;;1999.90;999.90;;;11.30;99.90;;;;;;5114389;28;20040;-74
2023/04/28 07:58:13;;;;;;;1999.90;999.90;;;11.20;99.90;;;;;;5115026;28;20397;-74
2023/04/28 08:00:39;;;;;;;1999.90;999.90;;;11.30;99.90;;;;;;5114984;28;20489;-74
2023/04/28 08:03:05;;;;;;;1999.90;999.90;;;11.30;99.90;;;;;;5114786;28;20389;-75
2023/04/28 08:05:31;;;;;;;1999.90;999.90;;;11.40;99.90;;;;;;5114426;28;20064;-74
2023/04/28 08:07:57;;;;;;;1999.90;999.90;;;11.40;99.90;;;;;;5114923;28;20024;-74
2023/04/28 08:10:25;;;;;;;1999.90;999.90;;;11.40;99.90;;;;;;5114439;28;20767;-74
2023/04/28 08:12:51;;;;;;;1999.90;999.90;;;11.50;99.90;;;;;;5114414;28;20024;-74
2023/04/28 08:15:16;;;;;;;1999.90;999.90;;;11.50;99.90;;;;;;5114256;28;20032;-74
2023/04/28 08:17:42;;;;;;;1999.90;999.90;;;11.70;99.90;;;;;;5113826;28;20555;-74
2023/04/28 08:20:08;;;;;;;1999.90;999.90;;;11.90;99.90;;;;;;5095935;28;20493;-74
2023/04/28 08:22:34;;;;;;;1999.90;999.90;;;12.00;99.90;;;;;;5114484;28;20489;-74
2023/04/28 08:24:59;;;;;;;1999.90;999.90;;;12.10;99.90;;;;;;5113989;28;20036;-74
2023/04/28 08:27:25;;;;;;;1999.90;999.90;;;12.20;99.90;;;;;;5114498;28;20481;-74
2023/04/28 08:29:51;;;;;;;1999.90;999.90;;;12.10;99.90;;;;;;5114614;28;20471;-74
2023/04/28 08:32:17;;;;;;;1999.90;999.90;;;12.10;99.90;;;;;;5114467;28;20035;-74
2023/04/28 08:34:42;;;;;;;1999.90;999.90;;;12.10;99.90;;;;;;5113572;28;20396;-75
2023/04/28 08:37:08;;;;;;;1999.90;999.90;;;12.10;99.90;;;;;;5113806;28;20028;-75
2023/04/28 08:39:34;;;;;;;1999.90;999.90;;;12.00;99.90;;;;;;5114411;28;20032;-75
2023/04/28 08:42:03;;;;;;;1999.90;999.90;;;12.10;99.90;;;;;;5114524;28;20036;-77
2023/04/28 08:44:39;;;;;;;1999.90;999.90;;;12.10;99.90;;;;;;5113992;28;20437;-74
2023/04/28 08:47:15;;;;;;;1999.90;999.90;;;12.00;99.90;;;;;;5116098;27;20039;-75
2023/04/28 08:49:43;;;;;;;1999.90;999.90;;;11.90;99.90;;;;;;5099048;28;20040;-75
2023/04/28 08:52:16;;;;;;;1999.90;999.90;;;11.90;99.90;;;;;;5098835;28;20525;-75
2023/04/28 08:54:43;;;;;;;1999.90;999.90;;;12.00;99.90;;;;;;5117336;28;20085;-75
2023/04/28 08:57:09;;;;;;;1999.90;999.90;;;12.10;99.90;;;;;;5117458;28;20055;-75
2023/04/28 08:59:39;;;;;;;1999.90;999.90;;;12.20;99.90;;;;;;5117551;28;20071;-75
2023/04/28 09:02:08;;;;;;;1999.90;999.90;;;12.20;99.90;;;;;;5117413;28;20028;-74
2023/04/28 09:04:34;;;;;;;1999.90;999.90;;;12.20;99.90;;;;;;5117055;28;20036;-74
2023/04/28 09:07:00;;;;;;;1999.90;999.90;;;12.20;99.90;;;;;;5117020;28;20024;-74
2023/04/28 09:09:29;;;;;;;1999.90;999.90;;;12.20;99.90;;;;;;5099229;28;20032;-74
2023/04/28 09:11:54;;;;;;;1999.90;999.90;;;12.30;99.90;;;;;;5117253;28;20024;-76
2023/04/28 09:14:21;;;;;;;1999.90;999.90;;;12.40;99.90;;;;;;5117179;28;20039;-73
2023/04/28 09:16:48;;;;;;;1999.90;999.90;;;12.50;99.90;;;;;;5116340;28;20063;-73
2023/04/28 09:19:16;;;;;;;1999.90;999.90;;;12.70;99.90;;;;;;5117319;28;20036;-74
2023/04/28 09:21:53;;;;;;;1999.90;999.90;;;12.90;99.90;;;;;;5117231;28;20099;-74
2023/04/28 09:24:48;;;;;;;1999.90;999.90;;;13.30;99.90;;;;;;5116857;28;20059;-74
2023/04/28 09:27:14;;;;;;;1999.90;999.90;;;13.40;99.90;;;;;;5102719;28;20098;-74
2023/04/28 09:29:52;;;;;;;1999.90;999.90;;;13.40;99.90;;;;;;5117111;28;20036;-74
2023/04/28 09:32:22;;;;;;;1999.90;999.90;;;13.50;99.90;;;;;;5117031;28;20101;-74
2023/04/28 09:34:52;;;;;;;1999.90;999.90;;;13.50;99.90;;;;;;5116544;28;20028;-75
2023/04/28 09:37:19;;;;;;;1999.90;999.90;;;13.70;99.90;;;;;;5098093;28;20031;-74
2023/04/28 09:39:49;;;;;;;1999.90;999.90;;;13.90;99.90;;;;;;5116800;28;20055;-74
2023/04/28 09:42:40;;;;;;;1999.90;999.90;;;13.80;99.90;;;;;;5116775;28;20064;-75
2023/04/28 09:45:13;;;;;;;1999.90;999.90;;;14.10;99.90;;;;;;5116374;28;20442;-74
2023/04/28 09:47:45;;;;;;;1999.90;999.90;;;14.30;99.90;;;;;;5116624;28;20071;-74
2023/04/28 09:50:13;;;;;;;1999.90;999.90;;;14.40;99.90;;;;;;5097495;28;20031;-74
2023/04/28 09:52:41;;;;;;;1999.90;999.90;;;14.60;99.90;;;;;;5118019;28;20028;-74
2023/04/28 09:55:10;;;;;;;1999.90;999.90;;;14.70;99.90;;;;;;5117314;28;20028;-74
2023/04/28 09:57:37;;;;;;;1999.90;999.90;;;14.60;99.90;;;;;;5116614;27;20512;-75
2023/04/28 10:00:05;;;;;;;1999.90;999.90;;;14.70;99.90;;;;;;5117023;28;20032;-75
2023/04/28 10:02:32;;;;;;;1999.90;999.90;;;14.60;99.90;;;;;;5116450;28;20031;-76
2023/04/28 10:04:58;;;;;;;1999.90;999.90;;;14.50;99.90;;;;;;5099304;28;20032;-77
2023/04/28 10:07:26;;;;;;;1999.90;999.90;;;14.30;99.90;;;;;;5116788;28;20020;-76
2023/04/28 10:09:52;;;;;;;1999.90;999.90;;;14.20;99.90;;;;;;5116555;28;20036;-79
2023/04/28 10:12:20;;;;;;;1999.90;999.90;;;14.10;99.90;;;;;;5097721;28;20031;-79
2023/04/28 10:14:48;;;;;;;1999.90;999.90;;;14.00;99.90;;;;;;5115795;28;20036;-75
2023/04/28 10:17:15;;;;;;;1999.90;999.90;;;13.90;99.90;;;;;;5115971;28;20056;-79
2023/04/28 10:19:45;;;;;;;1999.90;999.90;;;13.80;99.90;;;;;;5115712;28;20108;-75
2023/04/28 10:22:32;;;;;;;1999.90;999.90;;;14.00;99.90;;;;;;5115238;28;20554;-75
2023/04/28 10:25:07;;;;;;;1999.90;999.90;;;14.00;99.90;;;;;;5115663;28;20040;-74
2023/04/28 10:27:35;;;;;;;1999.90;999.90;;;14.30;99.90;;;;;;5115439;28;20903;-75
2023/04/28 10:30:13;;;;;;;1999.90;999.90;;;14.30;99.90;;;;;;5095495;28;20485;-74
2023/04/28 10:32:39;;;;;;;1999.90;999.90;;;14.30;99.90;;;;;;5096697;28;20032;-74
2023/04/28 10:35:26;;;;;;;1999.90;999.90;;;14.30;99.90;;;;;;5115957;28;20031;-78
2023/04/28 10:38:15;;;;;;;1999.90;999.90;;;14.40;99.90;;;;;;5097198;28;20070;-77
2023/04/28 10:40:42;;;;;;;1999.90;999.90;;;14.50;99.90;;;;;;5097531;28;20618;-77
2023/04/28 10:43:09;;;;;;;1999.90;999.90;;;14.90;99.90;;;;;;5115944;28;20032;-74
2023/04/28 10:45:53;;;;;;;1999.90;999.90;;;15.00;99.90;;;;;;5115526;28;20048;-75
2023/04/28 10:48:19;;;;;;;1999.90;999.90;;;15.00;99.90;;;;;;5115861;28;20031;-76
2023/04/28 10:51:08;;;;;;;1999.90;999.90;;;15.10;99.90;;;;;;5115752;28;20123;-75
2023/04/28 10:53:45;;;;;;;1999.90;999.90;;;15.20;99.90;;;;;;5097290;28;20499;-76
2023/04/28 10:56:23;;;;;;;1999.90;999.90;;;15.10;99.90;;;;;;5115388;28;20047;-76
2023/04/28 10:58:54;;;;;;;1999.90;999.90;;;15.20;99.90;;;;;;5115842;28;20024;-74
2023/04/28 11:01:33;;;;;;;1999.90;999.90;;;15.40;99.90;;;;;;5116089;28;20039;-77
2023/04/28 11:04:09;;;;;;;1999.90;999.90;;;15.30;99.90;;;;;;5115507;28;20469;-76
2023/04/28 11:06:39;;;;;;;1999.90;999.90;;;15.40;99.90;;;;;;5096791;28;20055;-77
2023/04/28 11:09:14;;;;;;;1999.90;999.90;;;15.20;99.90;;;;;;5114812;28;20035;-77
2023/04/28 11:11:58;;;;;;;1999.90;999.90;;;15.00;99.90;;;;;;5115556;28;20032;-77
2023/04/28 11:14:23;;;;;;;1999.90;999.90;;;14.80;99.90;;;;;;5115023;28;20542;-77
2023/04/28 11:16:52;;;;;;;1999.90;999.90;;;14.70;99.90;;;;;;5114975;28;20040;-79
2023/04/28 11:19:20;;;;;;;1999.90;999.90;;;14.50;99.90;;;;;;5115318;28;20083;-77
2023/04/28 11:21:47;;;;;;;1999.90;999.90;;;14.40;99.90;;;;;;5115377;28;20028;-76
2023/04/28 11:24:13;;;;;;;1999.90;999.90;;;14.50;99.90;;;;;;5114975;28;20548;-77
2023/04/28 11:26:40;;;;;;;1999.90;999.90;;;14.30;99.90;;;;;;5096345;28;20040;-76
2023/04/28 11:29:06;;;;;;;1999.90;999.90;;;14.30;99.90;;;;;;5115313;28;20115;-77
2023/04/28 11:31:32;;;;;;;1999.90;999.90;;;14.30;99.90;;;;;;5115362;28;20787;-76
2023/04/28 11:34:16;;;;;;;1999.90;999.90;;;14.30;99.90;;;;;;5096623;28;20033;-76
2023/04/28 11:36:42;;;;;;;1999.90;999.90;;;14.40;99.90;;;;;;5115002;28;20036;-75
2023/04/28 11:39:09;;;;;;;1999.90;999.90;;;14.40;99.90;;;;;;5096512;28;20107;-75
2023/04/28 11:41:35;;;;;;;1999.90;999.90;;;14.30;99.90;;;;;;5114883;28;20515;-77
2023/04/28 11:44:19;;;;;;;1999.90;999.90;;;14.40;99.90;;;;;;5114788;28;20515;-76
2023/04/28 11:46:54;;;;;;;1999.90;999.90;;;14.60;99.90;;;;;;5096360;28;20058;-76
2023/04/28 11:49:23;;;;;;;1999.90;999.90;;;14.60;99.90;;;;;;5114943;28;20070;-76
2023/04/28 11:51:50;;;;;;;1999.90;999.90;;;14.70;99.90;;;;;;5114813;28;20036;-75
2023/04/28 11:54:27;;;;;;;1999.90;999.90;;;14.80;99.90;;;;;;5114956;28;20822;-76
2023/04/28 11:56:54;;;;;;;1999.90;999.90;;;14.80;99.90;;;;;;5096374;28;20040;-76
2023/04/28 11:59:32;;;;;;;1999.90;999.90;;;14.80;99.90;;;;;;5114510;28;20024;-75
2023/04/28 12:02:05;;;;;;;1999.90;999.90;;;14.90;99.90;;;;;;5093712;28;20043;-75